createdAt,value
2018-06-28T00:01:38.484Z,15.98
2018-06-28T00:04:07.155Z,15.97
2018-06-28T00:06:35.829Z,15.85
2018-06-28T00:09:06.263Z,15.74
2018-06-28T00:11:35.465Z,15.79
2018-06-28T00:14:04.489Z,15.63
2018-06-28T00:16:33.040Z,15.53
2018-06-28T00:19:01.638Z,15.59
2018-06-28T00:21:30.385Z,15.73
2018-06-28T00:24:05.217Z,15.85
2018-06-28T00:26:35.089Z,15.92
2018-06-28T00:29:03.749Z,15.78
2018-06-28T00:31:32.325Z,15.55
2018-06-28T00:34:00.865Z,15.26
2018-06-28T00:36:29.453Z,15.29
2018-06-28T00:38:58.036Z,15.12
2018-06-28T00:41:26.628Z,15.27
2018-06-28T00:43:55.322Z,15.27
2018-06-28T00:46:23.950Z,15.22
2018-06-28T00:48:52.581Z,15.42
2018-06-28T00:51:21.173Z,15.25
2018-06-28T00:53:49.809Z,15.17
2018-06-28T00:56:18.486Z,14.90
2018-06-28T00:58:47.104Z,14.75
2018-06-28T01:01:15.697Z,14.98
2018-06-28T01:03:44.300Z,14.94
2018-06-28T01:06:12.920Z,14.78
2018-06-28T01:08:41.524Z,14.62
2018-06-28T01:11:10.148Z,14.67
2018-06-28T01:13:38.797Z,14.77
2018-06-28T01:16:07.540Z,14.79
2018-06-28T01:18:36.206Z,14.66
2018-06-28T01:21:05.189Z,14.44
2018-06-28T01:23:33.786Z,14.45
2018-06-28T01:26:02.332Z,14.42
2018-06-28T01:28:30.912Z,14.40
2018-06-28T01:30:59.553Z,14.54
2018-06-28T01:33:28.146Z,14.28
2018-06-28T01:35:56.713Z,14.46
2018-06-28T01:38:25.336Z,14.58
2018-06-28T01:40:54.312Z,14.52
2018-06-28T01:43:50.785Z,14.35
2018-06-28T01:46:19.594Z,14.23
2018-06-28T01:48:48.644Z,14.09
2018-06-28T01:51:17.216Z,13.60
2018-06-28T01:53:45.770Z,13.72
2018-06-28T01:56:14.309Z,14.08
2018-06-28T01:58:42.865Z,14.27
2018-06-28T02:01:11.396Z,14.07
2018-06-28T02:03:39.965Z,13.99
2018-06-28T02:06:08.537Z,14.08
2018-06-28T02:08:37.085Z,14.38
2018-06-28T02:11:05.596Z,14.55
2018-06-28T02:13:34.141Z,14.47
2018-06-28T02:16:02.645Z,14.50
2018-06-28T02:18:31.239Z,14.44
2018-06-28T02:20:59.757Z,14.28
2018-06-28T02:23:28.310Z,14.25
2018-06-28T02:25:56.825Z,14.44
2018-06-28T02:28:25.383Z,14.46
2018-06-28T02:30:53.909Z,14.55
2018-06-28T02:33:22.429Z,14.46
2018-06-28T02:35:50.929Z,14.47
2018-06-28T02:38:19.477Z,14.48
2018-06-28T02:40:49.012Z,14.52
2018-06-28T02:43:17.568Z,14.52
2018-06-28T02:45:46.074Z,14.52
2018-06-28T02:48:14.788Z,14.59
2018-06-28T02:50:43.292Z,14.58
2018-06-28T02:53:11.832Z,14.45
2018-06-28T02:55:40.382Z,14.55
2018-06-28T02:58:08.913Z,14.50
2018-06-28T03:00:37.452Z,14.65
2018-06-28T03:03:05.977Z,14.55
2018-06-28T03:05:34.532Z,14.43
2018-06-28T03:08:03.076Z,14.29
2018-06-28T03:10:31.626Z,14.40
2018-06-28T03:13:00.147Z,14.38
2018-06-28T03:15:28.728Z,14.38
2018-06-28T03:17:57.259Z,14.54
2018-06-28T03:20:25.806Z,14.56
2018-06-28T03:22:54.320Z,14.47
2018-06-28T03:25:22.856Z,14.54
2018-06-28T03:27:51.363Z,14.37
2018-06-28T03:30:19.929Z,14.33
2018-06-28T03:32:48.937Z,14.47
2018-06-28T03:35:17.489Z,14.58
2018-06-28T03:37:46.048Z,14.58
2018-06-28T03:40:14.594Z,14.48
2018-06-28T03:42:43.151Z,14.23
2018-06-28T03:45:11.684Z,14.12
2018-06-28T03:47:40.186Z,14.36
2018-06-28T03:50:08.782Z,14.42
2018-06-28T03:52:37.276Z,14.42
2018-06-28T03:55:05.924Z,14.31
2018-06-28T03:57:34.433Z,14.23
2018-06-28T04:00:03.000Z,14.33
2018-06-28T04:02:31.529Z,14.29
2018-06-28T04:05:00.062Z,14.29
2018-06-28T04:07:28.593Z,14.52
2018-06-28T04:09:57.136Z,14.53
2018-06-28T04:12:25.650Z,14.32
2018-06-28T04:14:54.180Z,14.25
2018-06-28T04:17:22.693Z,14.40
2018-06-28T04:19:51.226Z,14.54
2018-06-28T04:22:23.857Z,14.60
2018-06-28T04:24:52.412Z,14.68
2018-06-28T04:27:21.268Z,14.80
2018-06-28T04:29:49.789Z,14.86
2018-06-28T04:32:19.298Z,14.82
2018-06-28T04:34:47.845Z,14.93
2018-06-28T04:37:16.369Z,15.12
2018-06-28T04:39:44.907Z,15.13
2018-06-28T04:42:13.409Z,15.20
2018-06-28T04:44:42.114Z,15.21
2018-06-28T04:47:10.964Z,15.17
2018-06-28T04:49:39.475Z,15.21
2018-06-28T04:52:08.062Z,15.26
2018-06-28T04:54:36.564Z,15.34
2018-06-28T04:57:05.405Z,15.36
2018-06-28T04:59:33.922Z,15.45
2018-06-28T05:02:02.457Z,15.53
2018-06-28T05:04:30.955Z,15.60
2018-06-28T05:06:59.602Z,15.67
2018-06-28T05:09:28.245Z,15.75
2018-06-28T05:11:56.800Z,15.91
2018-06-28T05:14:25.295Z,15.84
2018-06-28T05:16:54.255Z,15.99
2018-06-28T05:19:22.768Z,16.08
2018-06-28T05:21:51.325Z,16.17
2018-06-28T05:24:19.849Z,16.16
2018-06-28T05:26:49.399Z,16.22
2018-06-28T05:29:17.977Z,16.34
2018-06-28T05:31:46.521Z,16.44
2018-06-28T05:34:15.057Z,16.48
2018-06-28T05:36:43.604Z,16.59
2018-06-28T05:39:12.513Z,16.66
2018-06-28T05:41:41.061Z,16.73
2018-06-28T05:44:09.621Z,16.82
2018-06-28T05:46:38.193Z,16.93
2018-06-28T05:49:06.983Z,16.97
2018-06-28T05:51:35.981Z,17.04
2018-06-28T05:54:04.630Z,17.08
2018-06-28T05:56:33.093Z,17.16
2018-06-28T05:59:01.629Z,17.31
2018-06-28T06:01:30.250Z,17.44
2018-06-28T06:03:58.744Z,17.56
2018-06-28T06:06:30.201Z,17.60
2018-06-28T06:08:58.744Z,17.69
2018-06-28T06:11:27.277Z,17.77
2018-06-28T06:13:55.821Z,17.82
2018-06-28T06:16:24.393Z,17.93
2018-06-28T06:18:53.017Z,18.02
2018-06-28T06:21:21.533Z,18.06
2018-06-28T06:23:50.088Z,18.15
2018-06-28T06:26:22.334Z,18.24
2018-06-28T06:28:50.888Z,18.42
2018-06-28T06:31:19.653Z,18.51
2018-06-28T06:33:48.217Z,18.56
2018-06-28T06:36:16.795Z,18.64
2018-06-28T06:38:45.324Z,18.75
2018-06-28T06:41:13.904Z,18.78
2018-06-28T06:43:42.457Z,18.91
2018-06-28T06:46:11.041Z,18.99
2018-06-28T06:48:39.667Z,19.01
2018-06-28T06:51:08.237Z,19.07
2018-06-28T06:53:36.753Z,19.15
2018-06-28T06:56:05.360Z,19.25
2018-06-28T06:58:33.893Z,19.32
2018-06-28T07:01:02.484Z,19.45
2018-06-28T07:03:31.116Z,19.46
2018-06-28T07:06:00.273Z,19.61
2018-06-28T07:08:29.153Z,19.69
2018-06-28T07:10:57.722Z,19.77
2018-06-28T07:13:26.255Z,19.88
2018-06-28T07:16:01.730Z,19.84
2018-06-28T07:18:30.236Z,19.92
2018-06-28T07:20:58.817Z,20.04
2018-06-28T07:23:27.369Z,20.16
2018-06-28T07:25:55.901Z,20.15
2018-06-28T07:28:24.518Z,20.18
2018-06-28T07:30:53.053Z,20.26
2018-06-28T07:33:21.601Z,20.34
2018-06-28T07:35:50.205Z,20.46
2018-06-28T07:38:18.779Z,20.51
2018-06-28T07:40:47.317Z,20.67
2018-06-28T07:43:15.961Z,20.74
2018-06-28T07:45:44.489Z,20.87
2018-06-28T07:48:13.069Z,20.77
2018-06-28T07:50:41.633Z,20.80
2018-06-28T07:53:10.190Z,20.70
2018-06-28T07:55:38.742Z,20.75
2018-06-28T07:58:07.321Z,20.76
2018-06-28T08:00:35.850Z,20.67
2018-06-28T08:03:04.758Z,20.74
2018-06-28T08:05:35.317Z,20.75
2018-06-28T08:08:03.917Z,20.89
2018-06-28T08:10:32.433Z,21.08
2018-06-28T08:13:00.960Z,21.11
2018-06-28T08:15:29.485Z,21.14
2018-06-28T08:17:58.028Z,21.10
2018-06-28T08:20:46.034Z,21.21
2018-06-28T08:23:31.870Z,21.35
2018-06-28T08:26:19.305Z,21.35
2018-06-28T08:29:03.305Z,21.57
2018-06-28T08:31:42.054Z,21.76
2018-06-28T08:34:25.582Z,21.77
2018-06-28T08:37:09.902Z,22.01
2018-06-28T08:39:42.407Z,22.14
2018-06-28T08:42:11.185Z,22.31
2018-06-28T08:44:42.719Z,22.21
2018-06-28T08:47:11.232Z,22.37
2018-06-28T08:49:39.793Z,22.51
2018-06-28T08:52:08.373Z,22.55
2018-06-28T08:54:36.910Z,22.68
2018-06-28T08:57:05.484Z,22.69
2018-06-28T08:59:34.025Z,22.90
2018-06-28T09:02:02.544Z,22.92
2018-06-28T09:04:31.258Z,23.06
2018-06-28T09:06:59.971Z,23.11
2018-06-28T09:09:28.590Z,23.13
2018-06-28T09:11:57.213Z,23.30
2018-06-28T09:14:25.770Z,23.29
2018-06-28T09:16:54.317Z,23.41
2018-06-28T09:19:22.868Z,23.40
2018-06-28T09:21:51.497Z,23.41
2018-06-28T09:24:20.656Z,23.50
2018-06-28T09:26:49.166Z,23.22
2018-06-28T09:29:17.715Z,23.36
2018-06-28T09:31:50.271Z,23.50
2018-06-28T09:34:21.928Z,23.66
2018-06-28T09:36:50.882Z,23.75
2018-06-28T09:39:20.242Z,23.85
2018-06-28T09:41:48.838Z,23.86
2018-06-28T09:44:17.409Z,23.94
2018-06-28T09:46:45.935Z,23.93
2018-06-28T09:49:14.525Z,24.15
2018-06-28T09:51:43.054Z,23.94
2018-06-28T09:54:11.780Z,24.33
2018-06-28T09:56:40.341Z,24.61
2018-06-28T09:59:08.912Z,24.22
2018-06-28T10:01:37.457Z,24.15
2018-06-28T10:04:06.044Z,23.93
2018-06-28T10:06:34.613Z,23.92
2018-06-28T10:09:03.293Z,23.92
2018-06-28T10:11:32.495Z,23.93
2018-06-28T10:14:01.236Z,24.06
2018-06-28T10:16:29.825Z,24.14
2018-06-28T10:18:58.422Z,24.19
2018-06-28T10:21:26.953Z,24.20
2018-06-28T10:23:55.465Z,24.45
2018-06-28T10:26:24.467Z,24.32
2018-06-28T10:28:53.300Z,24.28
2018-06-28T10:31:21.921Z,24.19
2018-06-28T10:33:50.861Z,24.11
2018-06-28T10:36:19.396Z,24.32
2018-06-28T10:38:48.244Z,24.59
2018-06-28T10:41:17.033Z,24.49
2018-06-28T10:43:45.768Z,24.33
2018-06-28T10:46:14.317Z,24.82
2018-06-28T10:48:42.908Z,24.63
2018-06-28T10:51:11.436Z,24.52
2018-06-28T10:53:39.941Z,24.77
2018-06-28T10:56:08.592Z,24.82
2018-06-28T10:58:37.116Z,25.06
2018-06-28T11:01:05.917Z,25.29
2018-06-28T11:03:34.616Z,25.09
2018-06-28T11:06:03.552Z,24.66
2018-06-28T11:08:32.064Z,24.64
2018-06-28T11:11:00.660Z,24.63
2018-06-28T11:13:33.832Z,25.11
2018-06-28T11:16:04.618Z,25.30
2018-06-28T11:18:34.993Z,25.38
2018-06-28T11:21:05.759Z,25.12
2018-06-28T11:23:35.852Z,24.85
2018-06-28T11:26:08.479Z,24.67
2018-06-28T11:28:39.486Z,24.60
2018-06-28T11:31:11.206Z,24.86
2018-06-28T11:33:40.989Z,25.31
2018-06-28T11:36:10.238Z,25.63
2018-06-28T11:38:42.125Z,25.45
2018-06-28T11:41:14.114Z,25.06
2018-06-28T11:43:46.640Z,25.35
2018-06-28T11:46:19.007Z,25.64
2018-06-28T11:48:50.245Z,25.50
2018-06-28T11:51:21.592Z,25.52
2018-06-28T11:53:54.951Z,25.70
2018-06-28T11:56:26.858Z,25.65
2018-06-28T11:59:00.576Z,25.52
2018-06-28T12:01:32.815Z,25.34
2018-06-28T12:04:04.253Z,25.34
2018-06-28T12:06:32.868Z,25.50
2018-06-28T12:09:01.411Z,25.72
2018-06-28T12:11:29.965Z,25.97
2018-06-28T12:13:58.511Z,26.09
2018-06-28T12:16:27.998Z,26.28
2018-06-28T12:19:02.008Z,26.52
2018-06-28T12:21:30.916Z,26.50
2018-06-28T12:23:59.836Z,26.80
2018-06-28T12:26:34.015Z,26.68
2018-06-28T12:29:07.892Z,26.68
2018-06-28T12:31:36.753Z,26.82
2018-06-28T12:34:05.376Z,26.81
2018-06-28T12:36:33.949Z,26.45
2018-06-28T12:39:03.684Z,26.81
2018-06-28T12:41:32.449Z,26.94
2018-06-28T12:44:00.975Z,27.14
2018-06-28T12:47:48.827Z,27.07
2018-06-28T12:50:18.038Z,27.37
2018-06-28T12:52:50.977Z,27.49
2018-06-28T12:55:20.344Z,27.15
2018-06-28T12:57:56.401Z,27.04
2018-06-28T13:00:25.749Z,26.97
2018-06-28T13:02:54.421Z,27.02
2018-06-28T13:05:23.444Z,27.08
2018-06-28T13:08:00.322Z,27.36
2018-06-28T13:10:29.001Z,27.49
2018-06-28T13:12:57.713Z,27.08
2018-06-28T13:15:26.368Z,26.74
2018-06-28T13:17:54.996Z,26.78
2018-06-28T13:20:23.606Z,26.84
2018-06-28T13:22:52.233Z,26.83
2018-06-28T13:25:21.217Z,26.94
2018-06-28T13:27:49.795Z,27.02
2018-06-28T13:30:18.305Z,26.86
2018-06-28T13:32:46.855Z,26.83
2018-06-28T13:35:15.364Z,27.21
2018-06-28T13:37:44.185Z,27.54
2018-06-28T13:40:12.743Z,27.65
2018-06-28T13:42:41.461Z,27.61
2018-06-28T13:45:09.991Z,27.33
2018-06-28T13:47:38.538Z,27.35
2018-06-28T13:50:07.454Z,27.12
2018-06-28T13:52:36.089Z,27.14
2018-06-28T13:55:04.631Z,26.98
2018-06-28T13:57:33.476Z,27.37
2018-06-28T14:00:01.977Z,27.61
2018-06-28T14:02:31.496Z,27.69
2018-06-28T14:04:59.999Z,27.73
2018-06-28T14:07:28.608Z,27.88
2018-06-28T14:09:57.162Z,27.68
2018-06-28T14:12:25.704Z,27.62
2018-06-28T14:14:54.261Z,27.50
2018-06-28T14:17:24.773Z,27.41
2018-06-28T14:19:53.831Z,27.64
2018-06-28T14:22:22.559Z,27.80
2018-06-28T14:24:51.486Z,27.66
2018-06-28T14:27:20.017Z,27.93
2018-06-28T14:29:48.781Z,27.75
2018-06-28T14:32:17.305Z,27.94
2018-06-28T14:34:46.037Z,27.78
2018-06-28T14:37:16.015Z,27.75
2018-06-28T14:39:44.850Z,27.37
2018-06-28T14:42:13.830Z,27.33
2018-06-28T14:44:42.399Z,26.96
2018-06-28T14:47:12.703Z,27.09
2018-06-28T14:49:41.652Z,26.92
2018-06-28T14:52:10.205Z,27.19
2018-06-28T14:54:39.004Z,27.44
2018-06-28T14:57:07.549Z,27.15
2018-06-28T14:59:36.161Z,26.97
2018-06-28T15:02:04.711Z,27.19
2018-06-28T15:04:33.421Z,27.63
2018-06-28T15:07:04.119Z,27.80
2018-06-28T15:09:32.788Z,27.91
2018-06-28T15:12:04.973Z,28.06
2018-06-28T15:14:43.020Z,28.04
2018-06-28T15:17:12.264Z,28.10
2018-06-28T15:19:42.241Z,28.15
2018-06-28T15:22:11.167Z,28.30
2018-06-28T15:24:43.712Z,27.82
2018-06-28T15:27:12.555Z,27.50
2018-06-28T15:29:42.754Z,27.68
2018-06-28T15:32:17.099Z,27.97
2018-06-28T15:34:48.954Z,28.23
2018-06-28T15:37:18.559Z,28.72
2018-06-28T15:39:49.250Z,28.33
2018-06-28T15:42:21.953Z,28.34
2018-06-28T15:44:53.760Z,28.55
2018-06-28T15:47:28.136Z,28.91
2018-06-28T15:50:00.202Z,28.79
2018-06-28T15:52:33.682Z,28.78
2018-06-28T15:55:03.522Z,28.67
2018-06-28T15:57:32.966Z,28.53
2018-06-28T16:00:02.902Z,28.64
2018-06-28T16:02:32.493Z,28.49
2018-06-28T16:05:05.957Z,27.99
2018-06-28T16:07:38.842Z,28.06
2018-06-28T16:10:10.239Z,28.39
2018-06-28T16:12:41.215Z,28.28
2018-06-28T16:15:10.551Z,28.46
2018-06-28T16:17:44.652Z,28.64
2018-06-28T16:20:19.789Z,28.66
2018-06-28T16:22:54.016Z,28.74
2018-06-28T16:25:25.374Z,28.81
2018-06-28T16:27:59.249Z,28.68
2018-06-28T16:30:29.232Z,28.79
2018-06-28T16:32:59.261Z,28.60
2018-06-28T16:35:29.373Z,28.65
2018-06-28T16:37:58.167Z,28.99
2018-06-28T16:40:31.600Z,29.07
2018-06-28T16:43:01.242Z,29.39
2018-06-28T16:45:36.685Z,29.85
2018-06-28T16:48:05.847Z,33.62
2018-06-28T16:50:35.821Z,36.06
2018-06-28T16:53:04.582Z,37.09
2018-06-28T16:55:38.105Z,38.96
2018-06-28T16:58:07.180Z,37.39
2018-06-28T17:00:40.703Z,37.24
2018-06-28T17:03:15.200Z,36.76
2018-06-28T17:05:45.757Z,36.94
2018-06-28T17:08:15.297Z,36.66
2018-06-28T17:10:43.922Z,36.07
2018-06-28T17:13:17.389Z,36.49
2018-06-28T17:15:49.488Z,36.44
2018-06-28T17:18:18.849Z,36.18
2018-06-28T17:20:52.332Z,35.82
2018-06-28T17:23:27.991Z,37.38
2018-06-28T17:25:58.500Z,35.83
2018-06-28T17:28:27.056Z,36.71
2018-06-28T17:30:57.114Z,36.11
2018-06-28T17:33:30.194Z,34.64
2018-06-28T17:36:03.996Z,31.65
2018-06-28T17:38:33.627Z,30.35
2018-06-28T17:41:02.609Z,29.79
2018-06-28T17:43:31.182Z,33.96
2018-06-28T17:46:00.236Z,35.52
2018-06-28T17:48:29.564Z,35.99
2018-06-28T17:50:58.989Z,36.04
2018-06-28T17:53:28.348Z,34.65
2018-06-28T17:55:56.909Z,34.29
2018-06-28T17:58:30.626Z,31.08
2018-06-28T18:00:59.199Z,30.83
2018-06-28T18:03:27.927Z,29.75
2018-06-28T18:05:56.501Z,29.01
2018-06-28T18:08:25.080Z,28.51
2018-06-28T18:10:54.084Z,28.15
2018-06-28T18:13:22.723Z,27.89
2018-06-28T18:15:51.288Z,27.65
2018-06-28T18:18:19.841Z,27.49
2018-06-28T18:20:48.490Z,27.28
2018-06-28T18:23:17.108Z,27.60
2018-06-28T18:25:45.636Z,27.54
2018-06-28T18:28:14.203Z,27.56
2018-06-28T18:30:43.090Z,26.92
2018-06-28T18:33:11.683Z,26.81
2018-06-28T18:35:40.221Z,26.47
2018-06-28T18:38:08.814Z,26.30
2018-06-28T18:40:37.333Z,26.32
2018-06-28T18:43:06.057Z,26.30
2018-06-28T18:45:34.588Z,25.98
2018-06-28T18:48:03.146Z,26.06
2018-06-28T18:50:32.210Z,26.03
2018-06-28T18:53:00.936Z,25.77
2018-06-28T18:55:29.588Z,25.83
2018-06-28T18:57:58.184Z,25.54
2018-06-28T19:00:26.781Z,25.57
2018-06-28T19:02:55.397Z,25.39
2018-06-28T19:05:24.009Z,25.43
2018-06-28T19:07:52.830Z,25.39
2018-06-28T19:10:26.709Z,25.35
2018-06-28T19:12:55.260Z,25.23
2018-06-28T19:15:29.140Z,25.12
2018-06-28T19:17:59.104Z,25.01
2018-06-28T19:20:28.705Z,25.01
2018-06-28T19:23:03.472Z,25.06
2018-06-28T19:25:32.440Z,24.89
2018-06-28T19:28:01.395Z,24.69
2018-06-28T19:30:35.774Z,24.57
2018-06-28T19:33:04.943Z,24.48
2018-06-28T19:35:33.917Z,24.43
2018-06-28T19:38:02.476Z,24.25
2018-06-28T19:40:36.413Z,24.13
2018-06-28T19:43:07.901Z,23.96
2018-06-28T19:45:36.586Z,23.86
2018-06-28T19:48:05.221Z,23.71
2018-06-28T19:50:39.353Z,23.63
2018-06-28T19:53:16.228Z,23.54
2018-06-28T19:55:44.798Z,23.50
2018-06-28T19:58:13.392Z,23.17
2018-06-28T20:00:47.448Z,23.07
2018-06-28T20:03:21.258Z,22.91
2018-06-28T20:05:49.828Z,22.86
2018-06-28T20:08:18.457Z,22.66
2018-06-28T20:10:47.025Z,22.78
2018-06-28T20:13:20.808Z,22.58
2018-06-28T20:15:56.580Z,22.39
2018-06-28T20:18:30.332Z,22.22
2018-06-28T20:21:00.539Z,22.24
2018-06-28T20:23:29.432Z,22.11
2018-06-28T20:25:58.344Z,21.91
2018-06-28T20:28:32.362Z,21.90
2018-06-28T20:31:06.073Z,22.08
2018-06-28T20:33:39.738Z,21.97
2018-06-28T20:36:08.275Z,22.00
2018-06-28T20:38:36.830Z,21.97
2018-06-28T20:41:05.535Z,21.80
2018-06-28T20:43:34.108Z,21.78
2018-06-28T20:46:02.693Z,21.68
2018-06-28T20:48:31.225Z,21.44
2018-06-28T20:50:59.875Z,21.39
2018-06-28T20:53:28.442Z,21.10
2018-06-28T20:55:56.962Z,21.19
2018-06-28T20:58:25.496Z,21.11
2018-06-28T21:00:54.093Z,20.89
2018-06-28T21:03:22.657Z,20.89
2018-06-28T21:05:51.253Z,20.93
2018-06-28T21:08:19.816Z,20.92
2018-06-28T21:10:48.404Z,20.65
2018-06-28T21:13:17.370Z,20.67
2018-06-28T21:15:48.069Z,20.50
2018-06-28T21:18:16.994Z,20.58
2018-06-28T21:20:47.809Z,20.55
2018-06-28T21:23:19.792Z,20.57
2018-06-28T21:25:51.008Z,20.41
2018-06-28T21:28:20.823Z,20.27
2018-06-28T21:30:53.822Z,20.33
2018-06-28T21:33:25.077Z,20.28
2018-06-28T21:35:58.224Z,20.20
2018-06-28T21:38:29.063Z,20.07
2018-06-28T21:41:02.678Z,19.90
2018-06-28T21:43:35.965Z,19.70
2018-06-28T21:46:08.288Z,19.75
2018-06-28T21:48:39.339Z,19.75
2018-06-28T21:51:18.732Z,19.82
2018-06-28T21:53:48.738Z,19.79
2018-06-28T21:56:25.633Z,19.62
2018-06-28T21:59:00.675Z,19.69
2018-06-28T22:01:35.464Z,19.64
2018-06-28T22:04:10.188Z,19.63
2018-06-28T22:06:45.357Z,19.62
2018-06-28T22:09:16.429Z,19.68
2018-06-28T22:11:52.567Z,19.73
2018-06-28T22:14:27.635Z,19.76
2018-06-28T22:17:07.037Z,19.97
2018-06-28T22:19:44.896Z,19.93
2018-06-28T22:22:17.310Z,20.03
2018-06-28T22:24:55.336Z,19.88
2018-06-28T22:27:29.904Z,19.94
2018-06-28T22:30:03.691Z,19.99
2018-06-28T22:32:36.015Z,19.90
2018-06-28T22:35:08.932Z,19.91
2018-06-28T22:37:43.882Z,19.82
2018-06-28T22:40:16.555Z,19.96
2018-06-28T22:42:50.243Z,19.82
2018-06-28T22:45:22.235Z,19.90
2018-06-28T22:47:54.404Z,19.99
2018-06-28T22:50:25.641Z,19.90
2018-06-28T22:53:08.441Z,19.96
2018-06-28T22:55:38.079Z,19.98
2018-06-28T22:58:11.114Z,20.07
2018-06-28T23:00:41.468Z,20.11
2018-06-28T23:03:17.256Z,20.09
2018-06-28T23:05:47.309Z,20.01
2018-06-28T23:08:15.874Z,19.96
2018-06-28T23:10:44.413Z,19.89
2018-06-28T23:13:13.112Z,19.82
2018-06-28T23:15:41.633Z,19.79
2018-06-28T23:18:10.391Z,19.86
2018-06-28T23:20:38.741Z,19.98
2018-06-28T23:23:07.296Z,19.95
2018-06-28T23:25:35.863Z,19.84
2018-06-28T23:28:04.636Z,19.97
2018-06-28T23:30:33.164Z,19.90
2018-06-28T23:33:01.771Z,19.87
2018-06-28T23:35:30.251Z,19.83
2018-06-28T23:37:58.813Z,19.65
2018-06-28T23:40:27.340Z,19.56
2018-06-28T23:42:55.897Z,19.66
2018-06-28T23:45:24.412Z,19.78
2018-06-28T23:47:52.956Z,19.78
2018-06-28T23:50:21.485Z,19.73
2018-06-28T23:52:50.096Z,19.77
2018-06-28T23:55:18.645Z,19.58
2018-06-28T23:57:47.208Z,19.11
